createdAt,value
2019-01-26T00:00:37.639Z,21.43
2019-01-26T00:03:41.089Z,20.10
2019-01-26T00:06:44.509Z,18.17
2019-01-26T00:09:47.942Z,16.83
2019-01-26T00:12:51.384Z,18.77
2019-01-26T00:15:54.822Z,22.20
2019-01-26T00:18:58.252Z,20.37
2019-01-26T00:22:01.696Z,17.03
2019-01-26T00:25:05.981Z,16.07
2019-01-26T00:28:09.424Z,16.73
2019-01-26T00:31:12.865Z,20.17
2019-01-26T00:34:16.276Z,18.73
2019-01-26T00:37:19.788Z,18.93
2019-01-26T00:40:23.237Z,16.23
2019-01-26T00:43:26.684Z,15.90
2019-01-26T00:46:30.122Z,16.53
2019-01-26T00:49:33.537Z,16.17
2019-01-26T00:52:37.047Z,16.47
2019-01-26T00:55:40.463Z,16.97
2019-01-26T00:58:43.912Z,17.80
2019-01-26T01:01:47.344Z,15.80
2019-01-26T01:04:50.849Z,16.03
2019-01-26T01:07:54.346Z,15.30
2019-01-26T01:10:57.788Z,15.07
2019-01-26T01:14:01.241Z,16.60
2019-01-26T01:17:04.665Z,15.87
2019-01-26T01:20:10.149Z,13.97
2019-01-26T01:23:13.571Z,14.40
2019-01-26T01:26:17.011Z,17.00
2019-01-26T01:29:20.461Z,14.50
2019-01-26T01:32:23.888Z,16.23
2019-01-26T01:35:27.326Z,14.07
2019-01-26T01:38:30.780Z,13.93
2019-01-26T01:41:34.209Z,13.93
2019-01-26T01:44:37.661Z,15.23
2019-01-26T01:47:41.109Z,14.90
2019-01-26T01:50:44.601Z,15.60
2019-01-26T01:53:48.053Z,15.43
2019-01-26T01:56:51.472Z,15.40
2019-01-26T01:59:54.909Z,11.93
2019-01-26T02:02:58.352Z,15.03
2019-01-26T02:06:01.775Z,14.70
2019-01-26T02:09:07.216Z,15.73
2019-01-26T02:12:10.652Z,15.63
2019-01-26T02:15:14.508Z,15.13
2019-01-26T02:18:17.945Z,13.93
2019-01-26T02:21:21.372Z,13.63
2019-01-26T02:24:24.801Z,15.27
2019-01-26T02:27:28.244Z,15.23
2019-01-26T02:30:31.740Z,17.20
2019-01-26T02:33:35.177Z,14.73
2019-01-26T02:36:38.592Z,14.73
2019-01-26T02:39:42.020Z,15.10
2019-01-26T02:42:45.463Z,13.60
2019-01-26T02:45:48.891Z,13.77
2019-01-26T02:48:52.332Z,15.87
2019-01-26T02:51:55.792Z,13.57
2019-01-26T02:54:59.263Z,13.37
2019-01-26T02:58:02.705Z,14.07
2019-01-26T03:01:06.113Z,12.90
2019-01-26T03:04:09.540Z,14.40
2019-01-26T03:07:12.986Z,16.90
2019-01-26T03:10:21.345Z,13.37
2019-01-26T03:13:24.789Z,14.40
2019-01-26T03:16:28.231Z,13.20
2019-01-26T03:19:31.643Z,10.93
2019-01-26T03:22:35.081Z,11.87
2019-01-26T03:25:38.493Z,12.93
2019-01-26T03:28:41.937Z,14.20
2019-01-26T03:31:45.342Z,11.33
2019-01-26T03:34:48.766Z,11.67
2019-01-26T03:37:52.216Z,10.77
2019-01-26T03:40:55.628Z,11.90
2019-01-26T03:43:59.059Z,11.50
2019-01-26T03:47:02.472Z,10.70
2019-01-26T03:50:08.952Z,10.60
2019-01-26T03:53:12.388Z,11.93
2019-01-26T03:56:15.874Z,10.73
2019-01-26T03:59:19.308Z,11.00
2019-01-26T04:02:22.788Z,10.73
2019-01-26T04:05:26.213Z,9.60
2019-01-26T04:08:29.637Z,9.90
2019-01-26T04:11:33.085Z,10.20
2019-01-26T04:14:36.522Z,11.47
2019-01-26T04:17:40.018Z,12.50
2019-01-26T04:20:43.449Z,11.73
2019-01-26T04:23:46.896Z,11.10
2019-01-26T04:26:50.386Z,12.70
2019-01-26T04:29:53.829Z,11.60
2019-01-26T04:32:57.263Z,11.10
2019-01-26T04:36:00.676Z,11.73
2019-01-26T04:39:06.812Z,11.67
2019-01-26T04:42:10.240Z,11.60
2019-01-26T04:45:21.529Z,10.40
2019-01-26T04:48:24.969Z,13.30
2019-01-26T04:51:28.400Z,11.97
2019-01-26T04:54:31.844Z,10.57
2019-01-26T04:57:35.244Z,13.73
2019-01-26T05:00:38.690Z,10.50
2019-01-26T05:03:42.124Z,12.10
2019-01-26T05:06:45.568Z,13.53
2019-01-26T05:09:48.986Z,13.40
2019-01-26T05:12:52.424Z,11.43
2019-01-26T05:15:55.834Z,12.13
2019-01-26T05:18:59.271Z,12.30
2019-01-26T05:22:02.712Z,10.50
2019-01-26T05:25:06.683Z,11.40
2019-01-26T05:28:10.133Z,10.07
2019-01-26T05:31:13.544Z,11.03
2019-01-26T05:34:16.984Z,10.50
2019-01-26T05:37:20.415Z,11.40
2019-01-26T05:40:23.850Z,10.03
2019-01-26T05:43:27.255Z,9.93
2019-01-26T05:46:30.698Z,11.93
2019-01-26T05:49:34.116Z,10.53
2019-01-26T05:52:37.565Z,10.00
2019-01-26T05:55:40.992Z,10.77
2019-01-26T05:58:44.429Z,10.40
2019-01-26T06:01:47.860Z,9.00
2019-01-26T06:04:51.293Z,10.37
2019-01-26T06:07:54.730Z,9.87
2019-01-26T06:10:58.174Z,8.93
2019-01-26T06:14:01.592Z,8.90
2019-01-26T06:17:05.028Z,8.80
2019-01-26T06:20:11.505Z,8.77
2019-01-26T06:23:14.921Z,7.93
2019-01-26T06:26:18.361Z,8.00
2019-01-26T06:29:21.799Z,9.43
2019-01-26T06:32:25.375Z,7.20
2019-01-26T06:35:28.814Z,7.83
2019-01-26T06:38:32.219Z,9.00
2019-01-26T06:41:35.678Z,10.47
2019-01-26T06:44:39.078Z,8.23
2019-01-26T06:47:42.526Z,9.43
2019-01-26T06:50:45.984Z,6.13
2019-01-26T06:53:49.389Z,7.73
2019-01-26T06:56:52.832Z,6.70
2019-01-26T06:59:56.258Z,6.90
2019-01-26T07:02:59.860Z,7.47
2019-01-26T07:06:04.910Z,8.07
2019-01-26T07:09:08.556Z,7.10
2019-01-26T07:12:11.968Z,7.23
2019-01-26T07:15:16.437Z,8.17
2019-01-26T07:18:19.844Z,6.90
2019-01-26T07:21:23.284Z,6.33
2019-01-26T07:24:26.767Z,6.13
2019-01-26T07:27:30.210Z,6.13
2019-01-26T07:30:33.756Z,8.27
2019-01-26T07:33:37.216Z,6.53
2019-01-26T07:36:40.628Z,6.40
2019-01-26T07:39:44.048Z,5.83
2019-01-26T07:42:47.504Z,6.43
2019-01-26T07:45:50.908Z,8.33
2019-01-26T07:48:54.339Z,5.67
2019-01-26T07:51:57.745Z,6.60
2019-01-26T07:55:01.189Z,5.87
2019-01-26T07:58:04.668Z,6.67
2019-01-26T08:01:08.112Z,5.60
2019-01-26T08:04:11.520Z,8.43
2019-01-26T08:07:14.965Z,7.53
2019-01-26T08:10:20.610Z,6.63
2019-01-26T08:13:24.045Z,6.40
2019-01-26T08:16:27.472Z,5.80
2019-01-26T08:19:30.900Z,6.30
2019-01-26T08:22:34.306Z,6.57
2019-01-26T08:25:37.837Z,7.67
2019-01-26T08:28:41.244Z,8.27
2019-01-26T08:31:44.692Z,6.67
2019-01-26T08:34:48.093Z,6.27
2019-01-26T08:37:51.533Z,8.40
2019-01-26T08:40:54.944Z,7.50
2019-01-26T08:43:58.384Z,6.17
2019-01-26T08:47:01.792Z,6.00
2019-01-26T08:50:11.163Z,7.10
2019-01-26T08:53:14.576Z,7.43
2019-01-26T08:56:18.016Z,6.10
2019-01-26T08:59:21.439Z,6.03
2019-01-26T09:02:34.996Z,5.73
2019-01-26T09:05:52.043Z,6.37
2019-01-26T09:08:55.476Z,6.70
2019-01-26T09:11:58.888Z,7.07
2019-01-26T09:15:02.341Z,6.77
2019-01-26T09:18:05.740Z,8.07
2019-01-26T09:21:09.180Z,7.33
2019-01-26T09:24:12.588Z,6.67
2019-01-26T09:27:16.035Z,6.73
2019-01-26T09:30:20.996Z,6.93
2019-01-26T09:33:24.432Z,6.87
2019-01-26T09:36:27.842Z,7.37
2019-01-26T09:39:31.276Z,7.63
2019-01-26T09:42:34.680Z,6.50
2019-01-26T09:45:38.118Z,6.47
2019-01-26T09:48:46.240Z,7.07
2019-01-26T09:51:46.752Z,10.43
2019-01-26T09:54:50.200Z,7.50
2019-01-26T09:57:53.604Z,7.63
2019-01-26T10:00:57.044Z,8.60
2019-01-26T10:04:00.452Z,8.50
2019-01-26T10:07:03.888Z,9.90
2019-01-26T10:10:12.935Z,15.57
2019-01-26T10:13:16.370Z,7.43
2019-01-26T10:16:20.128Z,9.60
2019-01-26T10:19:23.588Z,20.70
2019-01-26T10:22:27.037Z,13.50
2019-01-26T10:25:30.466Z,9.73
2019-01-26T10:28:33.886Z,8.07
2019-01-26T10:31:37.316Z,8.40
2019-01-26T10:34:40.776Z,11.10
2019-01-26T10:37:44.184Z,29.07
2019-01-26T10:40:54.997Z,14.53
2019-01-26T10:43:58.580Z,17.37
2019-01-26T10:47:02.489Z,67.70
2019-01-26T10:50:08.344Z,39.00
2019-01-26T10:53:11.796Z,22.53
2019-01-26T10:56:15.233Z,56.13
2019-01-26T10:59:18.644Z,18.53
2019-01-26T11:02:22.080Z,40.50
2019-01-26T11:05:25.605Z,23.17
2019-01-26T11:08:29.016Z,98.33
2019-01-26T11:11:32.468Z,95.93
2019-01-26T11:14:35.892Z,101.10
2019-01-26T11:17:39.344Z,30.60
2019-01-26T11:20:42.759Z,13.07
2019-01-26T11:23:46.208Z,30.17
2019-01-26T11:26:49.688Z,61.30
2019-01-26T11:29:53.143Z,173.57
2019-01-26T11:32:56.560Z,208.27
2019-01-26T11:36:00.002Z,12.40
2019-01-26T11:39:05.327Z,273.73
2019-01-26T11:42:08.769Z,34.10
2019-01-26T11:45:31.778Z,69.23
2019-01-26T11:48:36.864Z,78.73
2019-01-26T11:51:41.916Z,130.53
2019-01-26T11:54:47.008Z,114.07
2019-01-26T11:57:50.466Z,84.00
2019-01-26T12:01:11.628Z,45.87
2019-01-26T12:04:28.297Z,68.03
2019-01-26T12:07:31.865Z,61.87
2019-01-26T12:10:35.345Z,27.67
2019-01-26T12:13:38.796Z,50.57
2019-01-26T12:16:42.243Z,177.93
2019-01-26T12:19:45.689Z,113.13
2019-01-26T12:22:49.177Z,135.07
2019-01-26T12:25:52.639Z,44.57
2019-01-26T12:28:56.062Z,177.20
2019-01-26T12:31:59.504Z,74.30
2019-01-26T12:35:03.568Z,99.70
2019-01-26T12:38:07.004Z,181.60
2019-01-26T12:41:10.419Z,25.37
2019-01-26T12:44:13.861Z,208.23
2019-01-26T12:47:17.314Z,101.43
2019-01-26T12:50:20.723Z,138.40
2019-01-26T12:53:24.170Z,29.33
2019-01-26T12:56:27.664Z,42.27
2019-01-26T12:59:31.110Z,121.23
2019-01-26T13:02:34.521Z,39.23
2019-01-26T13:05:37.976Z,74.10
2019-01-26T13:08:41.388Z,20.47
2019-01-26T13:11:44.841Z,86.83
2019-01-26T13:14:48.272Z,56.20
2019-01-26T13:17:51.703Z,107.37
2019-01-26T13:20:55.126Z,231.43
2019-01-26T13:23:58.566Z,277.70
2019-01-26T13:27:01.988Z,204.13
2019-01-26T13:30:08.508Z,171.80
2019-01-26T13:33:11.920Z,274.90
2019-01-26T13:36:15.371Z,208.93
2019-01-26T13:39:18.792Z,114.90
2019-01-26T13:42:22.236Z,145.30
2019-01-26T13:45:25.749Z,101.70
2019-01-26T13:48:29.208Z,229.10
2019-01-26T13:51:34.026Z,163.77
2019-01-26T13:54:37.560Z,185.10
2019-01-26T13:57:41.055Z,207.23
2019-01-26T14:00:44.512Z,279.80
2019-01-26T14:03:47.926Z,137.97
2019-01-26T14:06:51.389Z,182.87
2019-01-26T14:09:54.833Z,228.00
2019-01-26T14:12:58.251Z,21.10
2019-01-26T14:16:02.516Z,126.87
2019-01-26T14:19:05.924Z,68.53
2019-01-26T14:22:09.372Z,22.37
2019-01-26T14:25:14.330Z,20.40
2019-01-26T14:28:17.829Z,10.40
2019-01-26T14:31:21.285Z,23.20
2019-01-26T14:34:24.709Z,51.83
2019-01-26T14:37:28.160Z,50.07
2019-01-26T14:40:31.575Z,32.93
2019-01-26T14:43:35.012Z,60.17
2019-01-26T14:46:38.427Z,15.77
2019-01-26T14:49:41.950Z,17.47
2019-01-26T14:52:45.813Z,18.37
2019-01-26T14:55:49.328Z,15.73
2019-01-26T14:58:52.729Z,12.63
2019-01-26T15:01:56.180Z,22.60
2019-01-26T15:04:59.599Z,15.10
2019-01-26T15:08:03.276Z,14.87
2019-01-26T15:11:06.721Z,15.37
2019-01-26T15:14:10.140Z,14.90
2019-01-26T15:17:13.588Z,14.20
2019-01-26T15:20:25.625Z,14.13
2019-01-26T15:23:29.056Z,14.30
2019-01-26T15:26:32.540Z,14.57
2019-01-26T15:29:35.943Z,10.47
2019-01-26T15:32:39.400Z,13.07
2019-01-26T15:35:42.816Z,12.57
2019-01-26T15:38:46.366Z,13.00
2019-01-26T15:41:50.804Z,13.17
2019-01-26T15:44:54.208Z,13.97
2019-01-26T15:47:57.730Z,14.17
2019-01-26T15:51:01.141Z,13.50
2019-01-26T15:54:05.208Z,14.93
2019-01-26T15:57:08.615Z,13.57
2019-01-26T16:00:24.065Z,13.13
2019-01-26T16:03:27.476Z,13.13
2019-01-26T16:06:30.916Z,12.80
2019-01-26T16:09:34.336Z,13.93
2019-01-26T16:12:37.856Z,13.73
2019-01-26T16:15:41.276Z,15.30
2019-01-26T16:18:44.734Z,18.20
2019-01-26T16:21:48.145Z,16.33
2019-01-26T16:24:51.672Z,15.73
2019-01-26T16:27:55.114Z,18.70
2019-01-26T16:30:58.604Z,16.17
2019-01-26T16:34:02.024Z,36.37
2019-01-26T16:37:05.488Z,22.23
2019-01-26T16:40:12.192Z,17.57
2019-01-26T16:43:15.649Z,15.87
2019-01-26T16:46:19.165Z,16.97
2019-01-26T16:49:22.584Z,19.57
2019-01-26T16:52:26.016Z,15.47
2019-01-26T16:55:29.435Z,29.03
2019-01-26T16:58:32.886Z,14.97
2019-01-26T17:01:36.327Z,15.70
2019-01-26T17:04:39.761Z,17.73
2019-01-26T17:07:45.896Z,17.20
2019-01-26T17:10:49.307Z,16.93
2019-01-26T17:13:52.768Z,19.07
2019-01-26T17:16:56.184Z,18.27
2019-01-26T17:19:59.630Z,16.30
2019-01-26T17:23:03.283Z,17.63
2019-01-26T17:26:06.708Z,17.17
2019-01-26T17:29:10.156Z,18.77
2019-01-26T17:32:13.574Z,18.00
2019-01-26T17:35:17.012Z,16.83
2019-01-26T17:38:20.432Z,17.30
2019-01-26T17:41:23.871Z,14.93
2019-01-26T17:44:27.312Z,15.93
2019-01-26T17:47:30.747Z,15.43
2019-01-26T17:50:34.156Z,15.27
2019-01-26T17:53:37.624Z,16.20
2019-01-26T17:56:41.028Z,15.63
2019-01-26T17:59:44.480Z,14.73
2019-01-26T18:02:47.929Z,16.57
2019-01-26T18:05:51.347Z,15.40
2019-01-26T18:08:54.784Z,13.93
2019-01-26T18:11:58.198Z,14.53
2019-01-26T18:15:01.628Z,14.23
2019-01-26T18:18:05.505Z,18.17
2019-01-26T18:21:08.920Z,15.67
2019-01-26T18:24:12.451Z,14.23
2019-01-26T18:27:15.872Z,14.77
2019-01-26T18:30:25.352Z,15.50
2019-01-26T18:33:28.768Z,16.17
2019-01-26T18:36:32.202Z,15.80
2019-01-26T18:39:35.655Z,17.37
2019-01-26T18:42:39.129Z,16.03
2019-01-26T18:45:42.572Z,13.70
2019-01-26T18:48:45.987Z,13.43
2019-01-26T18:51:49.432Z,13.60
2019-01-26T18:54:52.853Z,15.07
2019-01-26T18:57:56.284Z,13.67
2019-01-26T19:00:59.728Z,11.47
2019-01-26T19:04:06.219Z,12.90
2019-01-26T19:07:09.669Z,11.47
2019-01-26T19:10:14.031Z,12.70
2019-01-26T19:13:17.465Z,12.73
2019-01-26T19:16:20.908Z,14.27
2019-01-26T19:19:24.320Z,12.50
2019-01-26T19:22:27.759Z,11.20
2019-01-26T19:25:31.209Z,11.67
2019-01-26T19:28:34.685Z,9.47
2019-01-26T19:31:38.113Z,9.87
2019-01-26T19:34:41.520Z,8.33
2019-01-26T19:37:45.193Z,8.77
2019-01-26T19:40:48.623Z,9.27
2019-01-26T19:43:52.029Z,8.50
2019-01-26T19:46:55.456Z,7.37
2019-01-26T19:49:58.888Z,8.47
2019-01-26T19:53:02.299Z,9.50
2019-01-26T19:56:05.808Z,8.37
2019-01-26T19:59:09.228Z,9.90
2019-01-26T20:02:12.656Z,9.03
2019-01-26T20:05:18.686Z,8.20
2019-01-26T20:08:22.116Z,8.67
2019-01-26T20:11:25.625Z,8.63
2019-01-26T20:14:29.028Z,7.97
2019-01-26T20:17:32.468Z,7.73
2019-01-26T20:20:40.728Z,9.33
2019-01-26T20:23:44.180Z,7.27
2019-01-26T20:26:47.584Z,7.63
2019-01-26T20:29:51.026Z,8.27
2019-01-26T20:32:54.531Z,7.57
2019-01-26T20:35:57.984Z,8.67
2019-01-26T20:39:01.384Z,8.07
2019-01-26T20:42:04.904Z,8.27
2019-01-26T20:45:11.423Z,8.33
2019-01-26T20:48:14.860Z,8.27
2019-01-26T20:51:24.710Z,7.27
2019-01-26T20:54:23.420Z,7.10
2019-01-26T20:57:26.860Z,7.50
2019-01-26T21:00:31.508Z,8.17
2019-01-26T21:03:34.961Z,7.43
2019-01-26T21:06:38.363Z,7.07
2019-01-26T21:09:41.803Z,7.07
2019-01-26T21:12:45.351Z,8.40
2019-01-26T21:15:48.776Z,8.57
2019-01-26T21:18:52.184Z,7.80
2019-01-26T21:21:55.625Z,7.20
2019-01-26T21:24:59.036Z,6.33
2019-01-26T21:28:02.488Z,7.13
2019-01-26T21:31:05.896Z,7.93
2019-01-26T21:34:09.336Z,8.43
2019-01-26T21:37:12.740Z,6.97
2019-01-26T21:40:24.429Z,7.90
2019-01-26T21:43:27.856Z,7.37
2019-01-26T21:46:31.301Z,7.10
2019-01-26T21:49:34.708Z,7.50
2019-01-26T21:52:41.095Z,9.17
2019-01-26T21:55:43.269Z,7.47
2019-01-26T21:58:46.709Z,8.57
2019-01-26T22:01:50.144Z,7.73
2019-01-26T22:04:53.561Z,7.47
2019-01-26T22:07:57.008Z,7.07
2019-01-26T22:11:00.429Z,6.57
2019-01-26T22:14:04.248Z,7.37
2019-01-26T22:17:07.661Z,6.57
2019-01-26T22:20:14.040Z,6.63
2019-01-26T22:23:17.528Z,7.60
2019-01-26T22:26:20.961Z,6.17
2019-01-26T22:29:31.076Z,7.23
2019-01-26T22:32:29.534Z,7.37
2019-01-26T22:35:33.108Z,6.90
2019-01-26T22:38:36.521Z,7.17
2019-01-26T22:41:39.965Z,6.53
2019-01-26T22:44:43.364Z,6.60
2019-01-26T22:47:46.804Z,7.43
2019-01-26T22:50:50.212Z,6.97
2019-01-26T22:53:53.652Z,6.07
2019-01-26T22:56:57.063Z,6.10
2019-01-26T23:00:00.531Z,6.60
2019-01-26T23:03:04.641Z,7.47
2019-01-26T23:06:25.802Z,6.50
2019-01-26T23:09:42.253Z,6.90
2019-01-26T23:12:51.274Z,5.93
2019-01-26T23:16:30.796Z,5.53
2019-01-26T23:19:40.291Z,5.80
2019-01-26T23:22:58.335Z,6.13
2019-01-26T23:26:22.744Z,5.37
2019-01-26T23:29:32.363Z,6.03
2019-01-26T23:32:35.777Z,6.37
2019-01-26T23:35:39.208Z,5.80
2019-01-26T23:38:42.681Z,6.17
2019-01-26T23:41:46.090Z,5.93
2019-01-26T23:44:49.519Z,5.97
2019-01-26T23:47:52.932Z,5.37
2019-01-26T23:50:56.388Z,5.67
2019-01-26T23:53:59.796Z,6.87
2019-01-26T23:57:03.221Z,5.33
